Terminal Aerodrome Forecast
Issued by NWS Jackson, KY

Home | Current Version | Previous Version | Text Only | Print | Product List | Glossary On
Versions: 1 2 3 4 5 6 7 8 9 10 11 12 13 14
966
FTUS43 KJKL 251720
TAFLOZ
TAF
KLOZ 251720Z 2518/2618 24006KT P6SM SCT035 SCT060
     FM261100 00000KT 5SM BR FEW025
     FM261300 05003KT P6SM FEW040=

USA.gov is the U.S. government's official web portal to all federal, state and local government web resources and services.